Kezdőlap
METAR-TAF:

METAR-TAF

Repülőterek :

légibázis

Shizuhama, Japán

földrajzi szélesség: 34-49N, földrajzi hosszúság: 138-18E, magasság: 7 m

Jelenlegi meteorológiai megfigyelések

A jelentés 54 perccel ezelõtt készült, 13:47 UTC
Nyugat-délnyugati szél 13 kt
Hőmérséklet 26°C
Páratartalom 94%
Légköri nyomás 1001 hPa
Látótávolság: 7000 m
Kevés felhő 500 lábon
Szakadozott felhőzet 800 lábon
Szakadozott felhőzet 1000 lábon
enyhe záporok

METAR: RJNY 231347Z 25013KT 7000 -SHRA FEW005 BKN008 BKN010 26/25 Q1001 RMK 2ST005 5ST008 7CU010 A2956 VIS W 5KM BR

Idő: 23:41 (14:41 UTC)


TAF: hiányzik

Meteorológiai megfigyelések és előrejelzések több, mint 4000 repülőtéren (METAR és TAF jelentéseket).

A térképen piros és sárga pontok jelzik az elérhető meteorológiai állomásokat.

Mozgassa az egeret a pont fölött, hogy megjelenjen az állomás neve.

Azután kattintson az időjárási megfigyelések és előrejelzések megtekintéséhez.

A térkép megváltoztatása: kattintson a fekete keresztel jelölt zöld gombra ráközelítéshez, a vonallal jelölt zöld gombra távolításhoz, vagy a zöld nyilakra a szomszédos térképek eléréséhez.


METAR-TAF: